sensor_id;sensor_type;location;lat;lon;timestamp;pressure;altitude;pressure_sealevel;temperature;humidity
7376;BME280;3728;42.266;24.944;2023-05-03T00:01:25;100108.94;;;14.37;49.67
7376;BME280;3728;42.266;24.944;2023-05-03T00:03:53;100114.19;;;14.28;49.33
7376;BME280;3728;42.266;24.944;2023-05-03T00:06:20;100115.31;;;14.62;48.22
7376;BME280;3728;42.266;24.944;2023-05-03T00:08:48;100111.13;;;14.44;48.41
7376;BME280;3728;42.266;24.944;2023-05-03T00:11:15;100113.47;;;14.36;49.14
7376;BME280;3728;42.266;24.944;2023-05-03T00:13:43;100110.00;;;14.27;49.05
7376;BME280;3728;42.266;24.944;2023-05-03T00:16:11;100101.34;;;14.27;48.88
7376;BME280;3728;42.266;24.944;2023-05-03T00:18:38;100097.78;;;14.57;47.45
7376;BME280;3728;42.266;24.944;2023-05-03T00:21:06;100095.16;;;14.57;47.35
7376;BME280;3728;42.266;24.944;2023-05-03T00:23:34;100085.69;;;14.65;46.96
7376;BME280;3728;42.266;24.944;2023-05-03T00:26:01;100092.06;;;14.55;46.72
7376;BME280;3728;42.266;24.944;2023-05-03T00:28:29;100091.75;;;14.39;47.83
7376;BME280;3728;42.266;24.944;2023-05-03T00:30:56;100086.78;;;14.38;47.84
7376;BME280;3728;42.266;24.944;2023-05-03T00:33:34;100090.50;;;14.46;47.32
7376;BME280;3728;42.266;24.944;2023-05-03T00:36:08;100086.00;;;14.46;47.23
7376;BME280;3728;42.266;24.944;2023-05-03T00:38:38;100079.66;;;14.38;47.83
7376;BME280;3728;42.266;24.944;2023-05-03T00:41:08;100077.03;;;14.38;47.77
7376;BME280;3728;42.266;24.944;2023-05-03T00:43:36;100073.13;;;14.45;47.56
7376;BME280;3728;42.266;24.944;2023-05-03T00:46:05;100077.00;;;14.30;47.87
7376;BME280;3728;42.266;24.944;2023-05-03T00:48:47;100070.66;;;14.31;47.39
7376;BME280;3728;42.266;24.944;2023-05-03T00:51:16;100073.59;;;14.64;46.55
7376;BME280;3728;42.266;24.944;2023-05-03T00:53:45;100077.31;;;14.54;47.02
7376;BME280;3728;42.266;24.944;2023-05-03T00:56:18;100080.44;;;14.48;46.79
7376;BME280;3728;42.266;24.944;2023-05-03T00:58:46;100076.41;;;14.33;47.25
7376;BME280;3728;42.266;24.944;2023-05-03T01:01:14;100088.66;;;14.37;48.00
7376;BME280;3728;42.266;24.944;2023-05-03T01:03:43;100082.75;;;14.58;46.60
7376;BME280;3728;42.266;24.944;2023-05-03T01:08:56;100079.94;;;14.63;46.53
7376;BME280;3728;42.266;24.944;2023-05-03T01:17:13;100080.91;;;14.50;47.09
7376;BME280;3728;42.266;24.944;2023-05-03T01:19:48;100077.94;;;14.43;47.73
7376;BME280;3728;42.266;24.944;2023-05-03T01:25:36;100071.41;;;14.23;48.34
7376;BME280;3728;42.266;24.944;2023-05-03T01:28:03;100071.41;;;14.14;48.55
7376;BME280;3728;42.266;24.944;2023-05-03T01:30:31;100078.25;;;14.15;47.67
7376;BME280;3728;42.266;24.944;2023-05-03T01:33:30;100071.56;;;14.18;47.99
7376;BME280;3728;42.266;24.944;2023-05-03T01:36:22;100070.03;;;14.17;48.00
7376;BME280;3728;42.266;24.944;2023-05-03T01:38:53;100063.06;;;14.29;47.69
7376;BME280;3728;42.266;24.944;2023-05-03T01:41:22;100066.78;;;14.37;47.56
7376;BME280;3728;42.266;24.944;2023-05-03T01:43:52;100072.22;;;14.58;47.16
7376;BME280;3728;42.266;24.944;2023-05-03T01:46:21;100069.59;;;14.58;47.18
7376;BME280;3728;42.266;24.944;2023-05-03T01:48:48;100077.16;;;14.42;47.39
7376;BME280;3728;42.266;24.944;2023-05-03T01:51:16;100068.78;;;14.49;47.51
7376;BME280;3728;42.266;24.944;2023-05-03T01:53:44;100069.41;;;14.28;48.17
7376;BME280;3728;42.266;24.944;2023-05-03T01:56:11;100071.72;;;14.21;48.53
7376;BME280;3728;42.266;24.944;2023-05-03T01:58:39;100079.31;;;14.14;48.70
7376;BME280;3728;42.266;24.944;2023-05-03T02:01:06;100074.66;;;14.80;47.20
7376;BME280;3728;42.266;24.944;2023-05-03T02:03:34;100068.78;;;14.66;47.73
7376;BME280;3728;42.266;24.944;2023-05-03T02:06:02;100070.00;;;14.77;46.81
7376;BME280;3728;42.266;24.944;2023-05-03T02:08:29;100079.16;;;14.28;48.40
7376;BME280;3728;42.266;24.944;2023-05-03T02:10:58;100079.47;;;14.09;49.84
7376;BME280;3728;42.266;24.944;2023-05-03T02:13:25;100075.88;;;13.97;50.66
7376;BME280;3728;42.266;24.944;2023-05-03T02:15:53;100074.50;;;14.16;50.87
7376;BME280;3728;42.266;24.944;2023-05-03T02:18:21;100064.75;;;14.17;50.82
7376;BME280;3728;42.266;24.944;2023-05-03T02:20:50;100078.88;;;14.55;49.05
7376;BME280;3728;42.266;24.944;2023-05-03T02:23:17;100071.91;;;14.33;49.23
7376;BME280;3728;42.266;24.944;2023-05-03T02:25:46;100069.25;;;14.16;50.71
7376;BME280;3728;42.266;24.944;2023-05-03T02:28:15;100068.94;;;14.61;49.21
7376;BME280;3728;42.266;24.944;2023-05-03T02:30:42;100073.59;;;14.47;49.98
7376;BME280;3728;42.266;24.944;2023-05-03T02:33:10;100077.16;;;14.42;49.96
7376;BME280;3728;42.266;24.944;2023-05-03T02:35:38;100074.84;;;14.41;50.45
7376;BME280;3728;42.266;24.944;2023-05-03T02:38:05;100073.13;;;14.10;51.04
7376;BME280;3728;42.266;24.944;2023-05-03T02:40:33;100072.03;;;13.94;51.22
7376;BME280;3728;42.266;24.944;2023-05-03T02:43:01;100068.91;;;13.84;50.71
7376;BME280;3728;42.266;24.944;2023-05-03T02:45:30;100064.41;;;13.84;50.38
7376;BME280;3728;42.266;24.944;2023-05-03T02:47:57;100058.69;;;13.91;50.17
7376;BME280;3728;42.266;24.944;2023-05-03T02:50:26;100048.78;;;14.05;49.53
7376;BME280;3728;42.266;24.944;2023-05-03T02:52:53;100065.38;;;14.14;49.21
7376;BME280;3728;42.266;24.944;2023-05-03T02:55:21;100076.50;;;14.79;48.20
7376;BME280;3728;42.266;24.944;2023-05-03T02:57:49;100093.81;;;15.06;49.13
7376;BME280;3728;42.266;24.944;2023-05-03T03:00:18;100103.00;;;14.91;50.48
7376;BME280;3728;42.266;24.944;2023-05-03T03:02:46;100106.78;;;14.65;51.48
7376;BME280;3728;42.266;24.944;2023-05-03T03:05:13;100097.13;;;14.26;53.09
7376;BME280;3728;42.266;24.944;2023-05-03T03:07:46;100096.19;;;13.96;54.12
7376;BME280;3728;42.266;24.944;2023-05-03T03:10:13;100105.06;;;14.34;53.88
7376;BME280;3728;42.266;24.944;2023-05-03T03:12:42;100104.38;;;13.86;53.47
7376;BME280;3728;42.266;24.944;2023-05-03T03:15:17;100113.25;;;14.16;53.41
7376;BME280;3728;42.266;24.944;2023-05-03T03:17:45;100125.81;;;14.19;54.44
7376;BME280;3728;42.266;24.944;2023-05-03T03:20:13;100128.91;;;14.12;56.19
7376;BME280;3728;42.266;24.944;2023-05-03T03:22:44;100128.28;;;14.15;55.82
7376;BME280;3728;42.266;24.944;2023-05-03T03:25:12;100126.59;;;14.19;56.43
7376;BME280;3728;42.266;24.944;2023-05-03T03:27:40;100135.38;;;13.89;58.83
7376;BME280;3728;42.266;24.944;2023-05-03T03:30:08;100132.41;;;13.91;60.34
7376;BME280;3728;42.266;24.944;2023-05-03T03:32:46;100134.13;;;13.87;61.20
7376;BME280;3728;42.266;24.944;2023-05-03T03:35:23;100131.41;;;13.61;63.33
7376;BME280;3728;42.266;24.944;2023-05-03T03:37:52;100135.09;;;13.51;65.84
7376;BME280;3728;42.266;24.944;2023-05-03T03:40:21;100134.16;;;13.56;68.52
7376;BME280;3728;42.266;24.944;2023-05-03T03:42:51;100145.16;;;13.58;70.53
7376;BME280;3728;42.266;24.944;2023-05-03T03:45:19;100148.06;;;13.48;71.83
7376;BME280;3728;42.266;24.944;2023-05-03T03:47:47;100152.88;;;13.54;72.34
7376;BME280;3728;42.266;24.944;2023-05-03T03:50:20;100150.88;;;13.51;74.31
7376;BME280;3728;42.266;24.944;2023-05-03T03:52:48;100151.94;;;13.50;75.09
7376;BME280;3728;42.266;24.944;2023-05-03T03:55:16;100160.75;;;13.46;77.40
7376;BME280;3728;42.266;24.944;2023-05-03T03:57:46;100167.25;;;13.48;76.84
7376;BME280;3728;42.266;24.944;2023-05-03T04:00:14;100178.78;;;13.61;76.69
7376;BME280;3728;42.266;24.944;2023-05-03T04:02:48;100178.13;;;13.25;80.79
7376;BME280;3728;42.266;24.944;2023-05-03T04:05:17;100181.81;;;13.54;79.68
7376;BME280;3728;42.266;24.944;2023-05-03T04:07:45;100177.88;;;13.35;80.46
7376;BME280;3728;42.266;24.944;2023-05-03T04:10:14;100172.84;;;13.25;81.42
7376;BME280;3728;42.266;24.944;2023-05-03T04:12:43;100161.31;;;13.34;82.45
7376;BME280;3728;42.266;24.944;2023-05-03T04:15:13;100157.28;;;13.37;83.16
7376;BME280;3728;42.266;24.944;2023-05-03T04:17:43;100164.84;;;13.30;84.51
7376;BME280;3728;42.266;24.944;2023-05-03T04:20:11;100172.50;;;13.18;84.67
7376;BME280;3728;42.266;24.944;2023-05-03T04:22:44;100193.59;;;13.04;85.54
7376;BME280;3728;42.266;24.944;2023-05-03T04:25:14;100189.09;;;13.04;86.44
7376;BME280;3728;42.266;24.944;2023-05-03T04:27:48;100191.03;;;13.13;86.97
7376;BME280;3728;42.266;24.944;2023-05-03T04:30:18;100195.50;;;13.12;86.59
7376;BME280;3728;42.266;24.944;2023-05-03T04:32:50;100200.28;;;13.10;86.80
7376;BME280;3728;42.266;24.944;2023-05-03T04:35:21;100200.91;;;13.07;85.88
7376;BME280;3728;42.266;24.944;2023-05-03T04:37:50;100207.50;;;13.04;86.44
7376;BME280;3728;42.266;24.944;2023-05-03T04:40:21;100216.78;;;13.02;85.37
7376;BME280;3728;42.266;24.944;2023-05-03T04:42:58;100217.53;;;13.02;85.89
7376;BME280;3728;42.266;24.944;2023-05-03T04:45:29;100229.84;;;13.07;87.20
7376;BME280;3728;42.266;24.944;2023-05-03T04:47:58;100239.66;;;13.01;89.31
7376;BME280;3728;42.266;24.944;2023-05-03T04:50:25;100251.97;;;12.92;91.99
7376;BME280;3728;42.266;24.944;2023-05-03T04:52:53;100264.25;;;13.94;90.07
7376;BME280;3728;42.266;24.944;2023-05-03T04:55:24;100279.97;;;13.77;87.29
7376;BME280;3728;42.266;24.944;2023-05-03T04:57:54;100279.66;;;13.79;90.57
7376;BME280;3728;42.266;24.944;2023-05-03T05:00:22;100292.16;;;14.04;87.90
7376;BME280;3728;42.266;24.944;2023-05-03T05:02:57;100300.59;;;13.84;86.88
7376;BME280;3728;42.266;24.944;2023-05-03T05:05:30;100306.75;;;13.79;86.74
7376;BME280;3728;42.266;24.944;2023-05-03T05:07:59;100306.28;;;13.11;90.10
7376;BME280;3728;42.266;24.944;2023-05-03T05:10:37;100312.84;;;12.72;94.78
7376;BME280;3728;42.266;24.944;2023-05-03T05:13:14;100307.22;;;12.52;96.63
7376;BME280;3728;42.266;24.944;2023-05-03T05:15:43;100311.59;;;12.56;98.01
7376;BME280;3728;42.266;24.944;2023-05-03T05:18:11;100318.19;;;12.67;98.19
7376;BME280;3728;42.266;24.944;2023-05-03T05:20:40;100319.19;;;12.44;97.92
7376;BME280;3728;42.266;24.944;2023-05-03T05:23:08;100319.84;;;12.22;100.00
7376;BME280;3728;42.266;24.944;2023-05-03T05:25:38;100330.19;;;12.60;98.57
7376;BME280;3728;42.266;24.944;2023-05-03T05:28:08;100331.34;;;12.40;99.62
7376;BME280;3728;42.266;24.944;2023-05-03T05:30:37;100332.13;;;12.27;100.00
7376;BME280;3728;42.266;24.944;2023-05-03T05:33:06;100333.34;;;12.16;100.00
7376;BME280;3728;42.266;24.944;2023-05-03T05:35:33;100328.31;;;12.19;100.00
7376;BME280;3728;42.266;24.944;2023-05-03T05:38:03;100332.56;;;12.15;100.00
7376;BME280;3728;42.266;24.944;2023-05-03T05:40:32;100342.50;;;12.05;100.00
7376;BME280;3728;42.266;24.944;2023-05-03T05:43:00;100342.63;;;12.27;100.00
7376;BME280;3728;42.266;24.944;2023-05-03T05:45:31;100336.47;;;12.18;100.00
7376;BME280;3728;42.266;24.944;2023-05-03T05:48:01;100324.53;;;12.25;100.00
7376;BME280;3728;42.266;24.944;2023-05-03T05:50:30;100330.84;;;12.24;100.00
7376;BME280;3728;42.266;24.944;2023-05-03T05:53:03;100319.97;;;12.17;100.00
7376;BME280;3728;42.266;24.944;2023-05-03T05:55:38;100320.63;;;12.23;100.00
7376;BME280;3728;42.266;24.944;2023-05-03T05:58:06;100316.63;;;12.25;100.00
7376;BME280;3728;42.266;24.944;2023-05-03T06:00:39;100318.13;;;12.45;100.00
7376;BME280;3728;42.266;24.944;2023-05-03T06:03:07;100311.69;;;12.51;100.00
7376;BME280;3728;42.266;24.944;2023-05-03T06:05:36;100305.38;;;12.52;100.00
7376;BME280;3728;42.266;24.944;2023-05-03T06:08:04;100295.16;;;12.64;100.00
7376;BME280;3728;42.266;24.944;2023-05-03T06:10:31;100279.81;;;12.80;100.00
7376;BME280;3728;42.266;24.944;2023-05-03T06:13:02;100272.72;;;12.80;100.00
7376;BME280;3728;42.266;24.944;2023-05-03T06:15:31;100273.25;;;12.69;100.00
7376;BME280;3728;42.266;24.944;2023-05-03T06:17:58;100264.72;;;12.85;100.00
7376;BME280;3728;42.266;24.944;2023-05-03T06:20:26;100256.75;;;12.77;100.00
7376;BME280;3728;42.266;24.944;2023-05-03T06:22:56;100245.31;;;12.59;100.00
7376;BME280;3728;42.266;24.944;2023-05-03T06:25:24;100254.63;;;12.65;100.00
7376;BME280;3728;42.266;24.944;2023-05-03T06:27:52;100259.38;;;12.77;100.00
7376;BME280;3728;42.266;24.944;2023-05-03T06:30:23;100272.41;;;12.82;100.00
7376;BME280;3728;42.266;24.944;2023-05-03T06:32:51;100278.19;;;12.70;100.00
7376;BME280;3728;42.266;24.944;2023-05-03T06:35:19;100273.34;;;12.64;100.00
7376;BME280;3728;42.266;24.944;2023-05-03T06:37:48;100272.16;;;12.56;100.00
7376;BME280;3728;42.266;24.944;2023-05-03T06:40:15;100270.13;;;12.67;100.00
7376;BME280;3728;42.266;24.944;2023-05-03T06:42:43;100268.00;;;12.55;100.00
7376;BME280;3728;42.266;24.944;2023-05-03T06:45:17;100271.88;;;12.71;100.00
7376;BME280;3728;42.266;24.944;2023-05-03T06:47:45;100265.88;;;12.93;100.00
7376;BME280;3728;42.266;24.944;2023-05-03T06:50:13;100262.22;;;13.16;100.00
7376;BME280;3728;42.266;24.944;2023-05-03T06:52:41;100261.16;;;13.39;100.00
7376;BME280;3728;42.266;24.944;2023-05-03T06:55:08;100243.25;;;13.50;100.00
7376;BME280;3728;42.266;24.944;2023-05-03T06:57:37;100235.94;;;13.69;100.00
7376;BME280;3728;42.266;24.944;2023-05-03T07:00:07;100226.09;;;13.83;100.00
7376;BME280;3728;42.266;24.944;2023-05-03T07:02:35;100221.53;;;14.06;100.00
7376;BME280;3728;42.266;24.944;2023-05-03T07:05:03;100218.94;;;14.23;100.00
7376;BME280;3728;42.266;24.944;2023-05-03T07:07:32;100224.28;;;14.49;96.00
7376;BME280;3728;42.266;24.944;2023-05-03T07:09:59;100226.63;;;14.59;92.10
7376;BME280;3728;42.266;24.944;2023-05-03T07:12:27;100227.13;;;14.86;88.23
7376;BME280;3728;42.266;24.944;2023-05-03T07:14:55;100222.78;;;14.99;89.59
7376;BME280;3728;42.266;24.944;2023-05-03T07:17:23;100232.88;;;15.14;83.45
7376;BME280;3728;42.266;24.944;2023-05-03T07:19:51;100238.56;;;15.59;79.91
7376;BME280;3728;42.266;24.944;2023-05-03T07:22:21;100241.84;;;15.94;77.47
7376;BME280;3728;42.266;24.944;2023-05-03T07:24:52;100236.28;;;15.87;78.63
7376;BME280;3728;42.266;24.944;2023-05-03T07:27:21;100235.66;;;15.90;79.31
7376;BME280;3728;42.266;24.944;2023-05-03T07:29:48;100229.66;;;16.10;77.15
7376;BME280;3728;42.266;24.944;2023-05-03T07:32:16;100231.97;;;16.11;78.00
7376;BME280;3728;42.266;24.944;2023-05-03T07:34:44;100227.13;;;16.13;75.02
7376;BME280;3728;42.266;24.944;2023-05-03T07:37:11;100235.50;;;16.24;78.82
7376;BME280;3728;42.266;24.944;2023-05-03T07:39:40;100233.66;;;16.16;75.46
7376;BME280;3728;42.266;24.944;2023-05-03T07:42:07;100238.13;;;16.24;79.38
7376;BME280;3728;42.266;24.944;2023-05-03T07:44:35;100235.22;;;16.46;76.67
7376;BME280;3728;42.266;24.944;2023-05-03T07:47:03;100248.53;;;16.58;77.83
7376;BME280;3728;42.266;24.944;2023-05-03T07:49:30;100255.78;;;16.90;70.91
7376;BME280;3728;42.266;24.944;2023-05-03T07:52:01;100251.50;;;16.77;71.28
7376;BME280;3728;42.266;24.944;2023-05-03T07:54:28;100242.56;;;16.70;72.27
7376;BME280;3728;42.266;24.944;2023-05-03T07:56:56;100234.06;;;17.18;73.72
7376;BME280;3728;42.266;24.944;2023-05-03T07:59:24;100224.34;;;17.09;74.03
7376;BME280;3728;42.266;24.944;2023-05-03T08:01:52;100228.47;;;17.52;70.56
7376;BME280;3728;42.266;24.944;2023-05-03T08:04:19;100228.84;;;17.42;69.63
7376;BME280;3728;42.266;24.944;2023-05-03T08:06:47;100229.03;;;17.37;71.12
7376;BME280;3728;42.266;24.944;2023-05-03T08:09:15;100232.97;;;17.19;71.52
7376;BME280;3728;42.266;24.944;2023-05-03T08:11:44;100225.50;;;17.00;72.13
7376;BME280;3728;42.266;24.944;2023-05-03T08:14:13;100216.84;;;17.12;71.63
7376;BME280;3728;42.266;24.944;2023-05-03T08:16:41;100207.72;;;17.21;71.21
7376;BME280;3728;42.266;24.944;2023-05-03T08:19:08;100201.78;;;17.57;70.03
7376;BME280;3728;42.266;24.944;2023-05-03T08:21:36;100224.09;;;17.92;67.63
7376;BME280;3728;42.266;24.944;2023-05-03T08:24:03;100221.09;;;18.06;67.40
7376;BME280;3728;42.266;24.944;2023-05-03T08:26:32;100227.56;;;18.69;64.96
7376;BME280;3728;42.266;24.944;2023-05-03T08:28:59;100222.25;;;18.69;61.16
7376;BME280;3728;42.266;24.944;2023-05-03T08:31:29;100231.69;;;18.54;59.07
7376;BME280;3728;42.266;24.944;2023-05-03T08:33:56;100222.09;;;17.89;62.49
7376;BME280;3728;42.266;24.944;2023-05-03T08:36:24;100209.63;;;17.77;67.83
7376;BME280;3728;42.266;24.944;2023-05-03T08:38:51;100223.28;;;18.28;66.96
7376;BME280;3728;42.266;24.944;2023-05-03T08:41:29;100213.94;;;17.94;64.63
7376;BME280;3728;42.266;24.944;2023-05-03T08:43:59;100221.22;;;17.85;66.21
7376;BME280;3728;42.266;24.944;2023-05-03T08:46:29;100215.91;;;18.09;69.34
7376;BME280;3728;42.266;24.944;2023-05-03T08:48:57;100211.81;;;18.24;66.57
7376;BME280;3728;42.266;24.944;2023-05-03T08:51:26;100203.50;;;18.50;64.78
7376;BME280;3728;42.266;24.944;2023-05-03T08:53:54;100180.56;;;17.93;65.35
7376;BME280;3728;42.266;24.944;2023-05-03T08:56:35;100188.41;;;17.65;71.18
7376;BME280;3728;42.266;24.944;2023-05-03T08:59:07;100191.50;;;18.04;68.26
7376;BME280;3728;42.266;24.944;2023-05-03T09:01:39;100188.59;;;18.33;70.46
7376;BME280;3728;42.266;24.944;2023-05-03T09:04:08;100191.38;;;18.24;68.25
7376;BME280;3728;42.266;24.944;2023-05-03T09:06:37;100180.06;;;18.39;68.53
7376;BME280;3728;42.266;24.944;2023-05-03T09:09:06;100181.69;;;18.68;61.28
7376;BME280;3728;42.266;24.944;2023-05-03T09:11:36;100175.31;;;18.45;65.91
7376;BME280;3728;42.266;24.944;2023-05-03T09:14:11;100179.25;;;18.63;67.28
7376;BME280;3728;42.266;24.944;2023-05-03T09:16:42;100175.59;;;18.68;63.51
7376;BME280;3728;42.266;24.944;2023-05-03T09:19:11;100171.09;;;18.56;64.54
7376;BME280;3728;42.266;24.944;2023-05-03T09:21:41;100171.63;;;18.89;67.94
7376;BME280;3728;42.266;24.944;2023-05-03T09:26:45;100164.00;;;19.16;66.45
7376;BME280;3728;42.266;24.944;2023-05-03T09:29:34;100171.44;;;19.10;69.08
7376;BME280;3728;42.266;24.944;2023-05-03T09:32:03;100173.94;;;19.34;64.53
7376;BME280;3728;42.266;24.944;2023-05-03T09:34:33;100177.06;;;19.67;65.16
7376;BME280;3728;42.266;24.944;2023-05-03T09:37:04;100166.47;;;20.02;59.48
7376;BME280;3728;42.266;24.944;2023-05-03T09:39:32;100164.53;;;19.99;61.16
7376;BME280;3728;42.266;24.944;2023-05-03T09:42:11;100168.09;;;19.56;66.12
7376;BME280;3728;42.266;24.944;2023-05-03T09:44:48;100156.22;;;19.85;62.85
7376;BME280;3728;42.266;24.944;2023-05-03T09:47:19;100149.00;;;19.86;61.90
7376;BME280;3728;42.266;24.944;2023-05-03T09:49:50;100153.63;;;19.89;61.55
7376;BME280;3728;42.266;24.944;2023-05-03T09:52:18;100163.06;;;20.21;58.80
7376;BME280;3728;42.266;24.944;2023-05-03T09:54:47;100162.81;;;20.61;57.78
7376;BME280;3728;42.266;24.944;2023-05-03T09:57:14;100157.47;;;20.41;58.88
7376;BME280;3728;42.266;24.944;2023-05-03T09:59:43;100146.47;;;20.24;63.35
7376;BME280;3728;42.266;24.944;2023-05-03T10:02:11;100156.84;;;20.48;56.69
7376;BME280;3728;42.266;24.944;2023-05-03T10:04:42;100159.22;;;20.53;55.92
7376;BME280;3728;42.266;24.944;2023-05-03T10:07:13;100147.72;;;20.49;55.33
7376;BME280;3728;42.266;24.944;2023-05-03T10:09:45;100152.22;;;20.45;55.52
7376;BME280;3728;42.266;24.944;2023-05-03T10:12:14;100160.91;;;20.23;56.38
7376;BME280;3728;42.266;24.944;2023-05-03T10:14:47;100162.25;;;20.32;57.67
7376;BME280;3728;42.266;24.944;2023-05-03T10:17:25;100172.03;;;20.48;57.53
7376;BME280;3728;42.266;24.944;2023-05-03T10:20:37;100172.53;;;20.34;59.74
7376;BME280;3728;42.266;24.944;2023-05-03T10:23:08;100174.19;;;20.42;58.56
7376;BME280;3728;42.266;24.944;2023-05-03T10:25:39;100171.31;;;20.31;59.72
7376;BME280;3728;42.266;24.944;2023-05-03T10:28:39;100177.06;;;20.33;58.76
7376;BME280;3728;42.266;24.944;2023-05-03T10:31:45;100170.47;;;20.12;58.60
7376;BME280;3728;42.266;24.944;2023-05-03T10:34:24;100166.47;;;20.02;59.77
7376;BME280;3728;42.266;24.944;2023-05-03T10:36:56;100157.69;;;20.17;56.49
7376;BME280;3728;42.266;24.944;2023-05-03T10:39:29;100157.34;;;19.84;60.05
7376;BME280;3728;42.266;24.944;2023-05-03T10:42:07;100159.06;;;19.76;59.28
7376;BME280;3728;42.266;24.944;2023-05-03T10:44:55;100165.06;;;19.89;60.03
7376;BME280;3728;42.266;24.944;2023-05-03T10:47:24;100153.78;;;19.96;57.71
7376;BME280;3728;42.266;24.944;2023-05-03T10:55:16;100137.56;;;20.01;55.43
7376;BME280;3728;42.266;24.944;2023-05-03T10:57:53;100143.78;;;20.24;54.75
7376;BME280;3728;42.266;24.944;2023-05-03T11:05:47;100128.69;;;20.47;51.62
7376;BME280;3728;42.266;24.944;2023-05-03T11:08:19;100137.03;;;20.45;50.76
7376;BME280;3728;42.266;24.944;2023-05-03T11:10:49;100136.06;;;20.34;52.10
7376;BME280;3728;42.266;24.944;2023-05-03T11:13:22;100132.53;;;20.30;51.79
7376;BME280;3728;42.266;24.944;2023-05-03T11:15:53;100136.47;;;20.21;53.49
7376;BME280;3728;42.266;24.944;2023-05-03T11:18:25;100134.50;;;19.99;54.36
7376;BME280;3728;42.266;24.944;2023-05-03T11:20:55;100128.44;;;19.83;53.42
7376;BME280;3728;42.266;24.944;2023-05-03T11:23:26;100130.94;;;19.75;53.22
7376;BME280;3728;42.266;24.944;2023-05-03T11:25:55;100120.91;;;19.85;52.95
7376;BME280;3728;42.266;24.944;2023-05-03T11:28:26;100122.72;;;19.81;53.16
7376;BME280;3728;42.266;24.944;2023-05-03T11:30:53;100134.72;;;19.74;55.53
7376;BME280;3728;42.266;24.944;2023-05-03T11:33:22;100137.53;;;19.82;57.56
7376;BME280;3728;42.266;24.944;2023-05-03T11:35:54;100125.38;;;20.00;54.66
7376;BME280;3728;42.266;24.944;2023-05-03T11:38:22;100125.97;;;19.74;55.00
7376;BME280;3728;42.266;24.944;2023-05-03T11:40:51;100119.13;;;19.57;55.59
7376;BME280;3728;42.266;24.944;2023-05-03T11:43:18;100109.09;;;19.51;55.16
7376;BME280;3728;42.266;24.944;2023-05-03T11:45:47;100093.09;;;19.47;54.69
7376;BME280;3728;42.266;24.944;2023-05-03T11:48:17;100096.16;;;19.18;56.57
7376;BME280;3728;42.266;24.944;2023-05-03T11:53:14;100068.28;;;18.81;57.89
7376;BME280;3728;42.266;24.944;2023-05-03T11:55:47;100059.94;;;18.51;62.65
7376;BME280;3728;42.266;24.944;2023-05-03T11:58:22;100051.09;;;18.47;64.29
7376;BME280;3728;42.266;24.944;2023-05-03T12:00:54;100042.97;;;18.28;68.13
7376;BME280;3728;42.266;24.944;2023-05-03T12:03:27;100040.19;;;18.09;72.40
7376;BME280;3728;42.266;24.944;2023-05-03T12:05:59;100042.06;;;18.08;71.12
7376;BME280;3728;42.266;24.944;2023-05-03T12:08:31;100039.84;;;18.10;70.43
7376;BME280;3728;42.266;24.944;2023-05-03T12:11:02;100048.44;;;18.19;72.62
7376;BME280;3728;42.266;24.944;2023-05-03T12:13:34;100034.75;;;18.17;74.68
7376;BME280;3728;42.266;24.944;2023-05-03T12:16:07;100033.06;;;18.25;73.98
7376;BME280;3728;42.266;24.944;2023-05-03T12:21:24;100042.91;;;18.68;72.55
7376;BME280;3728;42.266;24.944;2023-05-03T12:23:57;100041.94;;;18.72;71.49
7376;BME280;3728;42.266;24.944;2023-05-03T12:26:27;100045.31;;;18.73;71.04
7376;BME280;3728;42.266;24.944;2023-05-03T12:28:54;100057.84;;;18.88;70.77
7376;BME280;3728;42.266;24.944;2023-05-03T12:31:23;100059.13;;;19.25;68.85
7376;BME280;3728;42.266;24.944;2023-05-03T12:33:55;100058.47;;;18.97;68.86
7376;BME280;3728;42.266;24.944;2023-05-03T12:36:42;100040.63;;;18.66;69.83
7376;BME280;3728;42.266;24.944;2023-05-03T12:39:14;100036.44;;;18.65;69.91
7376;BME280;3728;42.266;24.944;2023-05-03T12:41:42;100032.63;;;18.51;72.60
7376;BME280;3728;42.266;24.944;2023-05-03T12:44:12;100021.47;;;18.45;72.04
7376;BME280;3728;42.266;24.944;2023-05-03T12:46:42;100016.72;;;18.51;74.62
7376;BME280;3728;42.266;24.944;2023-05-03T12:49:11;100019.41;;;18.82;68.76
7376;BME280;3728;42.266;24.944;2023-05-03T12:51:41;100023.34;;;18.72;69.25
7376;BME280;3728;42.266;24.944;2023-05-03T12:54:10;100008.00;;;18.66;69.40
7376;BME280;3728;42.266;24.944;2023-05-03T12:56:38;100011.97;;;18.72;68.74
7376;BME280;3728;42.266;24.944;2023-05-03T12:59:07;100009.47;;;18.79;69.07
7376;BME280;3728;42.266;24.944;2023-05-03T13:01:37;100005.53;;;18.73;70.14
7376;BME280;3728;42.266;24.944;2023-05-03T13:04:08;100001.34;;;18.72;70.97
7376;BME280;3728;42.266;24.944;2023-05-03T13:06:40;99994.59;;;18.74;72.07
7376;BME280;3728;42.266;24.944;2023-05-03T13:09:09;99995.00;;;19.07;69.71
7376;BME280;3728;42.266;24.944;2023-05-03T13:11:46;99996.94;;;19.10;68.25
7376;BME280;3728;42.266;24.944;2023-05-03T13:14:15;99996.72;;;19.00;68.17
7376;BME280;3728;42.266;24.944;2023-05-03T13:16:44;99997.16;;;19.02;69.77
7376;BME280;3728;42.266;24.944;2023-05-03T13:19:15;99994.69;;;18.93;68.20
7376;BME280;3728;42.266;24.944;2023-05-03T13:21:46;99986.97;;;18.88;70.04
7376;BME280;3728;42.266;24.944;2023-05-03T13:24:14;99989.59;;;18.73;68.47
7376;BME280;3728;42.266;24.944;2023-05-03T13:26:46;99995.88;;;18.37;69.99
7376;BME280;3728;42.266;24.944;2023-05-03T13:29:16;99991.91;;;18.31;70.15
7376;BME280;3728;42.266;24.944;2023-05-03T13:31:44;99983.19;;;18.30;71.49
7376;BME280;3728;42.266;24.944;2023-05-03T13:34:11;99979.00;;;18.29;73.77
7376;BME280;3728;42.266;24.944;2023-05-03T13:36:39;99975.34;;;18.34;75.36
7376;BME280;3728;42.266;24.944;2023-05-03T13:39:06;99970.72;;;18.31;75.90
7376;BME280;3728;42.266;24.944;2023-05-03T13:41:38;99978.91;;;18.26;77.62
7376;BME280;3728;42.266;24.944;2023-05-03T13:44:08;99976.63;;;18.40;77.96
7376;BME280;3728;42.266;24.944;2023-05-03T13:46:39;99977.88;;;18.30;78.38